Terminal Aerodrome Forecast
Issued by NWS

Home | Current Version | Previous Version | Graphics & Text | Print | Product List | Glossary On
Versions: 1 2 3 4 5 6 7 8 9 10 11 12 13 14 15 16 17 18 19 20 21
779
FTUS43 KABR 241723
TAFPIR
TAF
KPIR 241723Z 2418/2518 12010KT 3/4SM -SN BR VV015
     FM241900 12011KT 1 1/2SM -SN BR OVC015
     FM242000 13005KT 2SM -SN OVC015
     FM242100 VRB03KT 2SM BR OVC020
     FM242300 28005KT P6SM BKN050
     FM250000 28005KT P6SM SCT120
     FM250900 26008KT P6SM FEW250=

USA.gov is the U.S. government's official web portal to all federal, state and local government web resources and services.